createdAt,value
2023-12-11T00:00:17.130Z,100211.47
2023-12-11T00:02:45.856Z,100213.91
2023-12-11T00:05:16.067Z,100230.59
2023-12-11T00:07:42.845Z,100240.16
2023-12-11T00:10:09.994Z,100232.63
2023-12-11T00:12:37.871Z,100238.16
2023-12-11T00:15:04.953Z,100238.16
2023-12-11T00:17:34.176Z,100243.72
2023-12-11T00:20:03.694Z,100234.59
2023-12-11T00:22:30.514Z,100228.25
2023-12-11T00:24:59.534Z,100251.72
2023-12-11T00:27:29.583Z,100252.94
2023-12-11T00:29:56.656Z,100253.72
2023-12-11T00:32:28.644Z,100259.72
2023-12-11T00:34:55.596Z,100258.50
2023-12-11T00:37:24.802Z,100266.06
2023-12-11T00:39:53.921Z,100272.41
2023-12-11T00:42:20.622Z,100284.75
2023-12-11T00:44:47.252Z,100285.16
2023-12-11T00:47:13.927Z,100293.09
2023-12-11T00:49:40.685Z,100297.06
2023-12-11T00:52:09.976Z,100293.16
2023-12-11T00:54:36.700Z,100304.28
2023-12-11T00:57:03.473Z,100291.63
2023-12-11T00:59:30.186Z,100293.63
2023-12-11T01:01:59.277Z,100307.97
2023-12-11T01:04:28.288Z,100303.19
2023-12-11T01:06:55.053Z,100301.63
2023-12-11T01:09:21.750Z,100304.41
2023-12-11T01:11:48.464Z,100297.28
2023-12-11T01:14:17.310Z,100301.28
2023-12-11T01:16:44.105Z,100307.63
2023-12-11T01:19:10.938Z,100314.38
2023-12-11T01:21:37.721Z,100326.75
2023-12-11T01:24:09.184Z,100304.16
2023-12-11T01:26:35.910Z,100327.94
2023-12-11T01:29:02.514Z,100318.50
2023-12-11T01:31:29.131Z,100326.41
2023-12-11T01:34:00.651Z,100323.28
2023-12-11T01:36:27.350Z,100324.50
2023-12-11T01:38:54.865Z,100336.84
2023-12-11T01:41:23.826Z,100330.50
2023-12-11T01:43:56.782Z,100325.72
2023-12-11T01:46:24.944Z,100320.16
2023-12-11T01:48:52.866Z,100320.16
2023-12-11T01:51:20.223Z,100331.28
2023-12-11T01:53:50.808Z,100316.59
2023-12-11T01:56:18.808Z,100331.72
2023-12-11T01:58:46.774Z,100317.03
2023-12-11T02:01:15.668Z,100321.81
2023-12-11T02:03:42.963Z,100321.03
2023-12-11T02:06:09.717Z,100325.03
2023-12-11T02:08:41.109Z,100336.59
2023-12-11T02:11:09.979Z,100317.56
2023-12-11T02:13:36.922Z,100332.25
2023-12-11T02:16:03.864Z,100320.34
2023-12-11T02:18:30.725Z,100318.81
2023-12-11T02:20:57.551Z,100314.03
2023-12-11T02:23:49.754Z,100318.00
2023-12-11T02:26:18.442Z,100322.03
2023-12-11T02:28:45.740Z,100323.22
2023-12-11T02:31:15.113Z,100330.03
2023-12-11T02:33:42.463Z,100331.22
2023-12-11T02:36:11.907Z,100334.91
2023-12-11T02:38:38.811Z,100344.44
2023-12-11T02:41:05.860Z,100352.78
2023-12-11T02:43:35.295Z,100356.00
2023-12-11T02:46:04.907Z,100355.22
2023-12-11T02:48:32.731Z,100360.75
2023-12-11T02:51:04.247Z,100352.88
2023-12-11T02:53:31.090Z,100357.63
2023-12-11T02:55:57.793Z,100356.84
2023-12-11T02:58:26.824Z,100367.63
2023-12-11T03:00:53.765Z,100358.53
2023-12-11T03:03:22.790Z,100360.53
2023-12-11T03:05:49.516Z,100360.97
2023-12-11T03:08:16.176Z,100359.72
2023-12-11T03:10:42.902Z,100366.53
2023-12-11T03:13:09.741Z,100368.50
2023-12-11T03:15:36.645Z,100372.47
2023-12-11T03:18:03.469Z,100368.50
2023-12-11T03:20:30.202Z,100372.06
2023-12-11T03:22:56.914Z,100384.81
2023-12-11T03:25:23.652Z,100357.47
2023-12-11T03:27:50.330Z,100376.91
2023-12-11T03:30:19.377Z,100365.81
2023-12-11T03:32:46.200Z,100365.47
2023-12-11T03:35:12.912Z,100368.66
2023-12-11T03:37:41.773Z,100379.41
2023-12-11T03:40:08.924Z,100368.75
2023-12-11T03:42:35.647Z,100375.09
2023-12-11T03:45:02.376Z,100377.09
2023-12-11T03:47:31.499Z,100382.28
2023-12-11T03:50:02.981Z,100382.28
2023-12-11T03:52:32.022Z,100377.19
2023-12-11T03:54:59.174Z,100385.50
2023-12-11T03:57:25.823Z,100383.19
2023-12-11T03:59:54.804Z,100381.94
2023-12-11T04:02:23.961Z,100388.75
2023-12-11T04:04:50.870Z,100401.03
2023-12-11T04:07:17.739Z,100397.50
2023-12-11T04:09:44.487Z,100401.47
2023-12-11T04:12:11.270Z,100399.94
2023-12-11T04:14:37.917Z,100401.59
2023-12-11T04:17:05.447Z,100401.94
2023-12-11T04:19:34.342Z,100404.72
2023-12-11T04:22:01.093Z,100405.56
2023-12-11T04:24:27.715Z,100411.13
2023-12-11T04:26:54.367Z,100414.25
2023-12-11T04:29:21.057Z,100425.34
2023-12-11T04:31:47.741Z,100431.34
2023-12-11T04:34:14.512Z,100440.91
2023-12-11T04:36:49.595Z,100432.56
2023-12-11T04:39:18.787Z,100438.13
2023-12-11T04:41:47.639Z,100439.31
2023-12-11T04:44:14.351Z,100458.75
2023-12-11T04:46:40.987Z,100442.88
2023-12-11T04:49:10.026Z,100453.19
2023-12-11T04:51:36.785Z,100450.44
2023-12-11T04:54:08.972Z,100449.28
2023-12-11T04:56:39.310Z,100454.09
2023-12-11T04:59:06.061Z,100461.63
2023-12-11T05:01:34.890Z,100457.72
2023-12-11T05:04:03.998Z,100464.50
2023-12-11T05:06:30.809Z,100466.91
2023-12-11T05:08:59.912Z,100469.34
2023-12-11T05:11:26.554Z,100470.53
2023-12-11T05:13:55.993Z,100483.28
2023-12-11T05:16:25.854Z,100488.50
2023-12-11T05:18:54.203Z,100491.72
2023-12-11T05:21:20.908Z,100494.91
2023-12-11T05:23:47.591Z,100503.25
2023-12-11T05:26:20.508Z,100493.34
2023-12-11T05:28:48.763Z,100498.13
2023-12-11T05:31:18.769Z,100496.56
2023-12-11T05:33:45.750Z,100508.09
2023-12-11T05:36:12.564Z,100511.66
2023-12-11T05:38:39.391Z,100520.34
2023-12-11T05:41:06.418Z,100520.75
2023-12-11T05:43:33.300Z,100526.66
2023-12-11T05:46:00.027Z,100532.19
2023-12-11T05:48:26.782Z,100524.75
2023-12-11T05:50:53.416Z,100523.16
2023-12-11T05:53:22.281Z,100529.06
2023-12-11T05:55:51.259Z,100533.06
2023-12-11T05:58:20.372Z,100528.31
2023-12-11T06:00:47.609Z,100527.97
2023-12-11T06:03:14.422Z,100532.72
2023-12-11T06:05:43.707Z,100532.03
2023-12-11T06:08:10.549Z,100542.34
2023-12-11T06:10:37.194Z,100536.06
2023-12-11T06:13:03.942Z,100544.47
2023-12-11T06:15:32.812Z,100550.13
2023-12-11T06:18:02.209Z,100548.09
2023-12-11T06:20:28.946Z,100554.88
2023-12-11T06:22:55.653Z,100534.31
2023-12-11T06:25:24.797Z,100541.50
2023-12-11T06:27:53.878Z,100548.69
2023-12-11T06:30:20.619Z,100556.22
2023-12-11T06:32:49.593Z,100562.22
2023-12-11T06:35:16.285Z,100567.41
2023-12-11T06:37:42.911Z,100567.06
2023-12-11T06:40:12.104Z,100561.91
2023-12-11T06:42:39.425Z,100567.88
2023-12-11T06:45:11.751Z,100566.75
2023-12-11T06:47:38.533Z,100577.09
2023-12-11T06:50:05.981Z,100583.03
2023-12-11T06:52:32.788Z,100580.69
2023-12-11T06:54:59.495Z,100588.66
2023-12-11T06:57:26.224Z,100589.88
2023-12-11T06:59:53.036Z,100593.06
2023-12-11T07:02:19.926Z,100593.50
2023-12-11T07:04:46.811Z,100595.13
2023-12-11T07:07:13.685Z,100590.44
2023-12-11T07:09:40.447Z,100606.72
2023-12-11T07:12:09.945Z,100604.78
2023-12-11T07:14:36.584Z,100613.53
2023-12-11T07:17:05.533Z,100619.50
2023-12-11T07:19:32.300Z,100629.00
2023-12-11T07:22:01.216Z,100638.56
2023-12-11T07:24:27.885Z,100636.59
2023-12-11T07:26:57.252Z,100643.38
2023-12-11T07:29:24.531Z,100643.00
2023-12-11T07:31:54.228Z,100645.44
2023-12-11T07:34:23.293Z,100655.72
2023-12-11T07:36:53.395Z,100660.91
2023-12-11T07:39:20.145Z,100670.84
2023-12-11T07:41:51.544Z,100672.06
2023-12-11T07:44:20.472Z,100678.78
2023-12-11T07:46:51.886Z,100685.13
2023-12-11T07:49:18.680Z,100680.81
2023-12-11T07:51:45.437Z,100680.38
2023-12-11T07:54:14.697Z,100694.13
2023-12-11T07:56:42.168Z,100697.16
2023-12-11T07:59:11.620Z,100691.84
2023-12-11T08:01:40.693Z,100695.06
2023-12-11T08:04:07.553Z,100698.28
2023-12-11T08:06:44.941Z,100707.00
2023-12-11T08:09:12.656Z,100708.19
2023-12-11T08:11:39.424Z,100719.72
2023-12-11T08:14:09.026Z,100720.16
2023-12-11T08:16:35.727Z,100721.75
2023-12-11T08:19:04.686Z,100730.09
2023-12-11T08:21:31.907Z,100735.22
2023-12-11T08:23:58.618Z,100734.44
2023-12-11T08:26:25.521Z,100734.44
2023-12-11T08:28:52.350Z,100753.84
2023-12-11T08:31:22.047Z,100754.22
2023-12-11T08:33:48.831Z,100753.47
2023-12-11T08:36:20.039Z,100755.03
2023-12-11T08:38:46.785Z,100763.69
2023-12-11T08:41:13.587Z,100773.59
2023-12-11T08:43:42.543Z,100763.69
2023-12-11T08:46:09.266Z,100780.34
2023-12-11T08:48:36.171Z,100778.78
2023-12-11T08:51:04.118Z,100779.53
2023-12-11T08:53:35.574Z,100780.34
2023-12-11T08:56:02.673Z,100791.06
2023-12-11T08:58:29.518Z,100797.00
2023-12-11T09:00:56.261Z,100807.28
2023-12-11T09:03:23.022Z,100807.69
2023-12-11T09:05:49.857Z,100806.88
2023-12-11T09:08:16.625Z,100812.81
2023-12-11T09:10:43.280Z,100820.34
2023-12-11T09:13:09.994Z,100825.09
2023-12-11T09:15:36.869Z,100832.63
2023-12-11T09:18:03.799Z,100831.84
2023-12-11T09:20:30.712Z,100837.38
2023-12-11T09:22:57.585Z,100838.97
2023-12-11T09:25:24.351Z,100833.31
2023-12-11T09:27:51.099Z,100843.47
2023-12-11T09:30:22.340Z,100842.44
2023-12-11T09:32:51.873Z,100840.19
2023-12-11T09:35:18.784Z,100840.41
2023-12-11T09:37:46.967Z,100845.16
2023-12-11T09:40:16.542Z,100851.06
2023-12-11T09:42:44.719Z,100851.41
2023-12-11T09:45:12.948Z,100862.09
2023-12-11T09:47:53.432Z,100856.13
2023-12-11T09:50:23.521Z,100870.00
2023-12-11T09:52:53.253Z,100865.66
2023-12-11T09:55:20.088Z,100866.84
2023-12-11T09:57:47.975Z,100881.22
2023-12-11T10:00:18.266Z,100872.53
2023-12-11T10:02:50.789Z,100873.72
2023-12-11T10:05:26.037Z,100873.78
2023-12-11T10:07:55.121Z,100874.56
2023-12-11T10:10:27.312Z,100875.75
2023-12-11T10:12:55.796Z,100868.66
2023-12-11T10:15:22.498Z,100878.53
2023-12-11T10:18:13.941Z,100885.25
2023-12-11T10:20:46.509Z,100879.03
2023-12-11T10:23:23.176Z,100884.25
2023-12-11T10:25:51.072Z,100895.06
2023-12-11T10:28:20.442Z,100896.44
2023-12-11T10:30:53.902Z,100888.59
2023-12-11T10:33:22.399Z,100899.69
2023-12-11T10:35:50.239Z,100901.53
2023-12-11T10:38:27.157Z,100896.16
2023-12-11T10:40:54.912Z,100904.31
2023-12-11T10:43:21.904Z,100893.84
2023-12-11T10:45:51.599Z,100905.59
2023-12-11T10:48:20.819Z,100904.38
2023-12-11T10:50:48.801Z,100906.72
2023-12-11T10:53:16.630Z,100907.56
2023-12-11T10:55:47.901Z,100909.97
2023-12-11T10:58:14.997Z,100910.47
2023-12-11T11:00:42.209Z,100909.16
2023-12-11T11:03:13.936Z,100912.09
2023-12-11T11:05:44.699Z,100908.78
2023-12-11T11:08:56.401Z,100908.78
2023-12-11T11:11:34.492Z,100911.91
2023-12-11T11:14:21.489Z,100894.28
2023-12-11T11:17:05.460Z,100897.31
2023-12-11T11:19:32.334Z,100897.00
2023-12-11T11:22:04.300Z,100887.97
2023-12-11T11:24:39.491Z,100895.38
2023-12-11T11:27:42.834Z,100903.06
2023-12-11T11:30:13.475Z,100907.00
2023-12-11T11:32:56.783Z,100899.28
2023-12-11T11:35:48.222Z,100907.13
2023-12-11T11:38:16.854Z,100912.72
2023-12-11T11:40:46.775Z,100918.03
2023-12-11T11:43:14.468Z,100907.09
2023-12-11T11:45:42.358Z,100907.28
2023-12-11T11:48:09.290Z,100904.06
2023-12-11T11:50:36.507Z,100901.22
2023-12-11T11:53:13.930Z,100915.13
2023-12-11T11:55:43.233Z,100910.31
2023-12-11T11:58:15.009Z,100918.59
2023-12-11T12:00:42.457Z,100898.16
2023-12-11T12:03:13.092Z,100895.63
2023-12-11T12:05:56.201Z,100895.06
2023-12-11T12:08:23.238Z,100888.44
2023-12-11T12:10:49.987Z,100902.19
2023-12-11T12:13:17.030Z,100910.41
2023-12-11T12:15:45.299Z,100910.56
2023-12-11T12:18:13.589Z,100907.19
2023-12-11T12:20:40.786Z,100906.13
2023-12-11T12:23:07.950Z,100900.31
2023-12-11T12:25:35.803Z,100900.38
2023-12-11T12:28:07.787Z,100908.13
2023-12-11T12:30:35.689Z,100907.06
2023-12-11T12:33:05.179Z,100906.44
2023-12-11T12:35:36.410Z,100909.78
2023-12-11T12:38:03.823Z,100901.19
2023-12-11T12:40:35.008Z,100906.03
2023-12-11T12:43:11.211Z,100914.81
2023-12-11T12:45:38.553Z,100906.56
2023-12-11T12:48:10.153Z,100907.06
2023-12-11T12:50:37.373Z,100900.00
2023-12-11T12:53:19.107Z,100904.78
2023-12-11T12:55:48.518Z,100907.22
2023-12-11T12:58:17.017Z,100902.50
2023-12-11T13:00:47.940Z,100896.59
2023-12-11T13:03:21.886Z,100901.44
2023-12-11T13:05:49.893Z,100895.53
2023-12-11T13:08:16.688Z,100896.75
2023-12-11T13:10:55.921Z,100905.50
2023-12-11T13:13:28.058Z,100896.44
2023-12-11T13:15:55.669Z,100898.81
2023-12-11T13:18:25.986Z,100900.03
2023-12-11T13:20:52.972Z,100905.16
2023-12-11T13:23:19.905Z,100905.94
2023-12-11T13:25:46.679Z,100911.44
2023-12-11T13:28:13.371Z,100902.66
2023-12-11T13:30:43.345Z,100908.59
2023-12-11T13:33:10.507Z,100914.16
2023-12-11T13:35:37.998Z,100918.13
2023-12-11T13:38:04.833Z,100914.50
2023-12-11T13:40:31.627Z,100920.84
2023-12-11T13:43:00.558Z,100927.19
2023-12-11T13:45:28.915Z,100933.47
2023-12-11T13:47:58.015Z,100942.97
2023-12-11T13:50:24.836Z,100942.88
2023-12-11T13:52:51.572Z,100946.81
2023-12-11T13:55:18.359Z,100934.78
2023-12-11T13:57:45.013Z,100931.66
2023-12-11T14:00:16.448Z,100932.44
2023-12-11T14:03:00.367Z,100930.47
2023-12-11T14:05:31.118Z,100930.91
2023-12-11T14:07:58.381Z,100938.09
2023-12-11T14:10:25.271Z,100928.97
2023-12-11T14:12:55.340Z,100941.31
2023-12-11T14:15:22.007Z,100937.75
2023-12-11T14:17:48.747Z,100942.09
2023-12-11T14:20:15.609Z,100945.28
2023-12-11T14:22:42.302Z,100931.81
2023-12-11T14:25:11.495Z,100940.53
2023-12-11T14:27:38.308Z,100929.41
2023-12-11T14:30:05.971Z,100928.25
2023-12-11T14:32:32.668Z,100930.31
2023-12-11T14:34:59.372Z,100934.38
2023-12-11T14:37:26.166Z,100943.16
2023-12-11T14:39:54.221Z,100938.47
2023-12-11T14:42:24.825Z,100945.25
2023-12-11T14:44:51.559Z,100943.31
2023-12-11T14:47:22.024Z,100944.97
2023-12-11T14:49:48.834Z,100941.47
2023-12-11T14:52:18.525Z,100956.56
2023-12-11T14:54:45.266Z,100962.22
2023-12-11T14:57:11.993Z,100954.72
2023-12-11T14:59:40.344Z,100950.44
2023-12-11T15:02:07.236Z,100962.00
2023-12-11T15:04:34.093Z,100956.09
2023-12-11T15:07:00.949Z,100962.47
2023-12-11T15:09:27.646Z,100957.78
2023-12-11T15:11:54.325Z,100951.91
2023-12-11T15:14:21.245Z,100951.28
2023-12-11T15:16:50.805Z,100964.88
2023-12-11T15:19:17.758Z,100966.22
2023-12-11T15:21:44.613Z,100961.50
2023-12-11T15:24:13.760Z,100967.13
2023-12-11T15:26:41.158Z,100967.19
2023-12-11T15:29:08.654Z,100971.59
2023-12-11T15:31:35.511Z,100965.31
2023-12-11T15:34:02.448Z,100970.47
2023-12-11T15:36:29.202Z,100964.56
2023-12-11T15:38:55.846Z,100966.59
2023-12-11T15:41:22.830Z,100976.97
2023-12-11T15:43:49.520Z,100979.03
2023-12-11T15:46:19.260Z,100973.19
2023-12-11T15:48:48.887Z,100981.16
2023-12-11T15:51:18.662Z,100977.66
2023-12-11T15:53:46.601Z,100972.16
2023-12-11T15:56:16.745Z,100974.19
2023-12-11T15:58:45.948Z,100983.34
2023-12-11T16:01:12.937Z,100977.06
2023-12-11T16:03:40.085Z,100971.56
2023-12-11T16:06:07.826Z,100982.31
2023-12-11T16:08:34.714Z,100974.03
2023-12-11T16:11:01.611Z,100972.88
2023-12-11T16:13:28.242Z,100974.94
2023-12-11T16:15:56.376Z,100963.88
2023-12-11T16:18:23.479Z,100973.81
2023-12-11T16:20:50.206Z,100972.28
2023-12-11T16:23:16.965Z,100972.78
2023-12-11T16:25:51.154Z,100972.84
2023-12-11T16:28:26.148Z,100968.91
2023-12-11T16:30:52.865Z,100964.16
2023-12-11T16:33:19.684Z,100971.38
2023-12-11T16:35:46.488Z,100957.53
2023-12-11T16:38:13.111Z,100950.09
2023-12-11T16:40:45.303Z,100953.69
2023-12-11T16:43:12.037Z,100961.28
2023-12-11T16:45:38.838Z,100954.97
2023-12-11T16:48:08.114Z,100962.13
2023-12-11T16:50:34.853Z,100958.47
2023-12-11T16:53:05.596Z,100958.50
2023-12-11T16:55:32.342Z,100960.81
2023-12-11T16:57:59.008Z,100946.59
2023-12-11T17:00:28.894Z,100951.44
2023-12-11T17:02:56.250Z,100944.50
2023-12-11T17:05:23.096Z,100937.19
2023-12-11T17:07:49.843Z,100937.38
2023-12-11T17:10:16.520Z,100942.47
2023-12-11T17:12:47.021Z,100939.97
2023-12-11T17:15:15.944Z,100942.66
2023-12-11T17:17:47.597Z,100945.03
2023-12-11T17:20:14.269Z,100949.72
2023-12-11T17:22:40.893Z,100956.09
2023-12-11T17:25:07.954Z,100956.88
2023-12-11T17:27:34.967Z,100953.44
2023-12-11T17:30:03.837Z,100955.41
2023-12-11T17:32:31.993Z,100965.25
2023-12-11T17:34:59.311Z,100958.09
2023-12-11T17:37:26.061Z,100958.84
2023-12-11T17:39:54.914Z,100960.09
2023-12-11T17:42:21.769Z,100951.88
2023-12-11T17:44:48.538Z,100961.13
2023-12-11T17:47:15.305Z,100964.16
2023-12-11T17:49:42.264Z,100972.75
2023-12-11T17:52:13.877Z,100967.69
2023-12-11T17:54:43.813Z,100966.13
2023-12-11T17:57:10.862Z,100958.44
2023-12-11T17:59:42.195Z,100958.25
2023-12-11T18:02:09.141Z,100948.50
2023-12-11T18:04:39.794Z,100936.91
2023-12-11T18:07:06.707Z,100941.16
2023-12-11T18:09:38.757Z,100950.44
2023-12-11T18:12:09.971Z,100950.53
2023-12-11T18:14:36.617Z,100948.84
2023-12-11T18:17:08.880Z,100952.75
2023-12-11T18:19:35.633Z,100954.91
2023-12-11T18:22:07.136Z,100952.72
2023-12-11T18:24:34.581Z,100951.25
2023-12-11T18:27:03.778Z,100955.72
2023-12-11T18:29:34.927Z,100949.88
2023-12-11T18:32:08.901Z,100953.16
2023-12-11T18:34:43.239Z,100947.63
2023-12-11T18:37:18.620Z,100952.81
2023-12-11T18:39:47.679Z,100958.44
2023-12-11T18:42:16.414Z,100956.88
2023-12-11T18:44:43.658Z,100951.56
2023-12-11T18:47:10.316Z,100958.41
2023-12-11T18:49:46.060Z,100948.22
2023-12-11T18:52:15.735Z,100949.91
2023-12-11T18:54:44.747Z,100940.47
2023-12-11T18:57:13.119Z,100934.56
2023-12-11T18:59:39.966Z,100944.50
2023-12-11T19:02:14.180Z,100941.41
2023-12-11T19:04:41.100Z,100946.97
2023-12-11T19:07:07.873Z,100935.94
2023-12-11T19:09:34.545Z,100940.75
2023-12-11T19:12:01.776Z,100936.81
2023-12-11T19:14:28.415Z,100931.31
2023-12-11T19:16:57.669Z,100932.94
2023-12-11T19:19:24.410Z,100940.88
2023-12-11T19:21:53.078Z,100950.03
2023-12-11T19:24:22.134Z,100945.69
2023-12-11T19:26:51.250Z,100946.09
2023-12-11T19:29:18.752Z,100951.28
2023-12-11T19:31:45.475Z,100954.47
2023-12-11T19:34:16.793Z,100955.66
2023-12-11T19:36:43.616Z,100944.50
2023-12-11T19:39:11.096Z,100949.94
2023-12-11T19:41:37.749Z,100953.88
2023-12-11T19:44:06.872Z,100947.91
2023-12-11T19:46:33.562Z,100953.44
2023-12-11T19:49:02.775Z,100948.69
2023-12-11T19:51:30.449Z,100945.13
2023-12-11T19:53:57.744Z,100932.47
2023-12-11T19:56:26.923Z,100934.47
2023-12-11T19:58:53.632Z,100940.00
2023-12-11T20:01:29.918Z,100938.84
2023-12-11T20:03:56.828Z,100935.69
2023-12-11T20:06:32.569Z,100933.34
2023-12-11T20:08:59.262Z,100939.69
2023-12-11T20:11:27.457Z,100931.38
2023-12-11T20:13:57.181Z,100924.63
2023-12-11T20:16:26.416Z,100924.63
2023-12-11T20:18:54.084Z,100923.41
2023-12-11T20:21:20.874Z,100919.84
2023-12-11T20:23:50.723Z,100922.22
2023-12-11T20:26:23.625Z,100920.22
2023-12-11T20:28:50.287Z,100912.69
2023-12-11T20:31:20.219Z,100914.31
2023-12-11T20:33:47.606Z,100920.28
2023-12-11T20:36:22.233Z,100916.72
2023-12-11T20:38:53.705Z,100915.91
2023-12-11T20:41:25.181Z,100915.16
2023-12-11T20:43:56.686Z,100909.63
2023-12-11T20:46:25.199Z,100915.16
2023-12-11T20:48:55.545Z,100915.91
2023-12-11T20:51:25.421Z,100915.16
2023-12-11T20:53:54.717Z,100906.84
2023-12-11T20:56:22.943Z,100903.28
2023-12-11T20:58:55.186Z,100905.63
2023-12-11T21:01:30.985Z,100891.75
2023-12-11T21:03:59.047Z,100881.47
2023-12-11T21:06:25.858Z,100880.25
2023-12-11T21:09:00.426Z,100875.91
2023-12-11T21:11:30.805Z,100877.47
2023-12-11T21:14:00.121Z,100874.69
2023-12-11T21:16:29.046Z,100879.47
2023-12-11T21:18:58.084Z,100878.69
2023-12-11T21:21:25.709Z,100875.91
2023-12-11T21:23:55.111Z,100885.41
2023-12-11T21:26:24.106Z,100885.41
2023-12-11T21:28:53.336Z,100890.97
2023-12-11T21:31:28.183Z,100888.19
2023-12-11T21:33:56.118Z,100883.06
2023-12-11T21:36:28.778Z,100885.06
2023-12-11T21:38:55.583Z,100879.50
2023-12-11T21:41:24.663Z,100876.75
2023-12-11T21:43:54.404Z,100862.13
2023-12-11T21:46:21.486Z,100873.97
2023-12-11T21:48:51.054Z,100875.56
2023-12-11T21:51:20.233Z,100872.78
2023-12-11T21:53:48.118Z,100867.22
2023-12-11T21:56:16.995Z,100867.19
2023-12-11T21:58:43.811Z,100861.94
2023-12-11T22:01:10.896Z,100859.16
2023-12-11T22:03:40.209Z,100861.19
2023-12-11T22:06:07.268Z,100851.28
2023-12-11T22:08:33.894Z,100846.94
2023-12-11T22:11:02.741Z,100836.25
2023-12-11T22:13:29.514Z,100841.78
2023-12-11T22:15:58.864Z,100847.34
2023-12-11T22:18:25.590Z,100840.25
2023-12-11T22:20:52.258Z,100846.56
2023-12-11T22:23:18.944Z,100846.56
2023-12-11T22:25:45.554Z,100843.81
2023-12-11T22:28:12.293Z,100838.94
2023-12-11T22:30:41.587Z,100828.84
2023-12-11T22:33:08.341Z,100833.72
2023-12-11T22:35:37.193Z,100821.34
2023-12-11T22:38:06.915Z,100831.31
2023-12-11T22:40:36.842Z,100830.25
2023-12-11T22:43:03.908Z,100825.25
2023-12-11T22:45:30.547Z,100806.41
2023-12-11T22:47:57.211Z,100811.91
2023-12-11T22:50:23.918Z,100812.25
2023-12-11T22:52:53.178Z,100811.72
2023-12-11T22:55:19.782Z,100811.16
2023-12-11T22:57:50.439Z,100803.84
2023-12-11T23:00:23.813Z,100794.72
2023-12-11T23:02:50.473Z,100799.59
2023-12-11T23:05:19.854Z,100782.53
2023-12-11T23:07:49.329Z,100781.00
2023-12-11T23:10:16.125Z,100775.84
2023-12-11T23:12:42.848Z,100776.63
2023-12-11T23:15:10.664Z,100776.63
2023-12-11T23:17:37.617Z,100766.72
2023-12-11T23:20:04.764Z,100774.91
2023-12-11T23:22:31.425Z,100766.03
2023-12-11T23:25:00.787Z,100766.75
2023-12-11T23:27:27.513Z,100767.84
2023-12-11T23:29:57.867Z,100767.78
2023-12-11T23:32:33.229Z,100762.56
2023-12-11T23:35:02.118Z,100762.03
2023-12-11T23:37:29.256Z,100758.06
2023-12-11T23:39:58.580Z,100760.91
2023-12-11T23:42:27.576Z,100757.00
2023-12-11T23:44:54.229Z,100756.66
2023-12-11T23:47:23.059Z,100757.88
2023-12-11T23:49:52.039Z,100747.97
2023-12-11T23:52:21.097Z,100752.50
2023-12-11T23:54:47.863Z,100747.25
2023-12-11T23:57:14.506Z,100743.59
2023-12-11T23:59:43.381Z,100749.94
